Time,TemperatureF,DewpointF,PressureIn,WindDirection,WindDirectionDegrees,WindSpeedMPH,WindSpeedGustMPH,Humidity,HourlyPrecipIn,Conditions,Clouds,dailyrainin,SoftwareType,DateUTC
2013-02-11 00:02:00,11.9,7.2,30.00,SW,229,4.0,5.0,81,0.00,CLR,CLR,0.00,WeatherDisplay:10.34,2013-02-11 07:02:00,
2013-02-11 00:07:00,11.8,7.1,30.00,SW,229,5.0,5.0,81,0.00,CLR,CLR,0.00,WeatherDisplay:10.34,2013-02-11 07:07:00,
2013-02-11 00:12:00,11.7,7.3,30.00,SW,233,5.0,5.0,82,0.00,CLR,CLR,0.00,WeatherDisplay:10.34,2013-02-11 07:12:00,
2013-02-11 00:17:00,11.6,7.2,30.00,WSW,237,5.0,7.0,82,0.00,CLR,CLR,0.00,WeatherDisplay:10.34,2013-02-11 07:17:00,
2013-02-11 00:22:00,11.6,7.2,30.00,WSW,248,7.0,8.0,82,0.00,CLR,CLR,0.00,WeatherDisplay:10.34,2013-02-11 07:22:00,
2013-02-11 00:27:00,11.6,7.2,30.00,WSW,242,6.0,7.0,82,0.00,CLR,CLR,0.00,WeatherDisplay:10.34,2013-02-11 07:27:00,
2013-02-11 00:32:00,11.6,7.4,30.00,WSW,245,5.0,5.0,83,0.00,CLR,CLR,0.00,WeatherDisplay:10.34,2013-02-11 07:32:00,
2013-02-11 00:37:00,11.6,7.4,30.00,WSW,244,4.0,5.0,83,0.00,CLR,CLR,0.00,WeatherDisplay:10.34,2013-02-11 07:37:00,
2013-02-11 00:42:00,11.5,7.1,30.00,WSW,245,5.0,5.0,82,0.00,CLR,CLR,0.00,WeatherDisplay:10.34,2013-02-11 07:42:00,
2013-02-11 00:47:00,11.4,7.2,30.00,WSW,253,6.0,7.0,83,0.00,CLR,CLR,0.00,WeatherDisplay:10.34,2013-02-11 07:47:00,
2013-02-11 00:52:00,11.3,6.9,30.00,WSW,239,6.0,7.0,82,0.00,CLR,CLR,0.00,WeatherDisplay:10.34,2013-02-11 07:52:00,
2013-02-11 00:57:00,11.2,6.8,30.00,SW,236,3.0,3.0,82,0.00,CLR,CLR,0.00,WeatherDisplay:10.34,2013-02-11 07:57:00,
2013-02-11 01:02:00,11.0,6.6,29.99,SW,233,6.0,8.0,82,0.00,CLR,CLR,0.00,WeatherDisplay:10.34,2013-02-11 08:02:00,
2013-02-11 01:07:00,10.9,6.8,29.99,SW,235,5.0,5.0,83,0.00,CLR,CLR,0.00,WeatherDisplay:10.34,2013-02-11 08:07:00,
2013-02-11 01:12:00,10.9,6.8,29.99,WSW,242,6.0,7.0,83,0.00,CLR,CLR,0.00,WeatherDisplay:10.34,2013-02-11 08:12:00,
2013-02-11 01:17:00,10.9,6.8,29.99,SW,232,7.0,7.0,83,0.00,CLR,CLR,0.00,WeatherDisplay:10.34,2013-02-11 08:17:00,
2013-02-11 01:22:00,10.8,6.7,29.99,SW,236,6.0,6.0,83,0.00,CLR,CLR,0.00,WeatherDisplay:10.34,2013-02-11 08:22:00,
2013-02-11 01:27:00,10.7,6.6,29.99,SW,233,6.0,6.0,83,0.00,CLR,CLR,0.00,WeatherDisplay:10.34,2013-02-11 08:27:00,
2013-02-11 01:32:00,10.6,6.5,29.99,SW,227,6.0,7.0,83,0.00,CLR,CLR,0.00,WeatherDisplay:10.34,2013-02-11 08:32:00,
2013-02-11 01:37:00,10.5,6.4,29.99,WSW,242,6.0,8.0,83,0.00,CLR,CLR,0.00,WeatherDisplay:10.34,2013-02-11 08:37:00,
2013-02-11 01:42:00,10.4,6.3,29.98,WSW,242,6.0,7.0,83,0.00,CLR,CLR,0.00,WeatherDisplay:10.34,2013-02-11 08:42:00,
2013-02-11 01:47:00,10.3,6.2,29.98,SW,223,6.0,6.0,83,0.00,CLR,CLR,0.00,WeatherDisplay:10.34,2013-02-11 08:47:00,
2013-02-11 01:52:00,10.1,5.7,29.99,SW,221,6.0,6.0,82,0.00,CLR,CLR,0.00,WeatherDisplay:10.34,2013-02-11 08:52:00,
2013-02-11 01:57:00,10.1,6.0,29.99,SW,230,4.0,5.0,83,0.00,CLR,CLR,0.00,WeatherDisplay:10.34,2013-02-11 08:57:00,
2013-02-11 02:02:00,10.0,5.9,29.99,SW,225,6.0,7.0,83,0.00,CLR,CLR,0.00,WeatherDisplay:10.34,2013-02-11 09:02:00,
2013-02-11 02:07:00,9.9,5.8,29.99,SW,219,3.0,5.0,83,0.00,CLR,CLR,0.00,WeatherDisplay:10.34,2013-02-11 09:07:00,
2013-02-11 02:12:00,9.9,5.5,29.99,SW,219,2.0,2.0,82,0.00,CLR,CLR,0.00,WeatherDisplay:10.34,2013-02-11 09:12:00,
2013-02-11 02:17:00,9.9,5.8,29.98,SW,234,4.0,4.0,83,0.00,CLR,CLR,0.00,WeatherDisplay:10.34,2013-02-11 09:17:00,
2013-02-11 02:22:00,9.8,5.7,29.98,SW,225,5.0,5.0,83,0.00,CLR,CLR,0.00,WeatherDisplay:10.34,2013-02-11 09:22:00,
2013-02-11 02:27:00,9.8,5.7,29.98,SW,218,2.0,2.0,83,0.00,CLR,CLR,0.00,WeatherDisplay:10.34,2013-02-11 09:27:00,
2013-02-11 02:32:00,9.6,5.2,29.99,SE,126,2.0,2.0,82,0.00,CLR,CLR,0.00,WeatherDisplay:10.34,2013-02-11 09:32:00,
2013-02-11 02:37:00,9.3,4.9,29.99,SE,126,1.0,2.0,82,0.00,CLR,CLR,0.00,WeatherDisplay:10.34,2013-02-11 09:37:00,
2013-02-11 02:42:00,9.1,4.5,29.99,SE,125,3.0,3.0,81,0.00,CLR,CLR,0.00,WeatherDisplay:10.34,2013-02-11 09:42:00,
2013-02-11 02:47:00,8.7,4.1,29.99,South,175,2.0,2.0,81,0.00,CLR,CLR,0.00,WeatherDisplay:10.34,2013-02-11 09:47:00,
2013-02-11 02:52:00,8.3,3.7,29.98,South,175,2.0,2.0,81,0.00,CLR,CLR,0.00,WeatherDisplay:10.34,2013-02-11 09:52:00,
2013-02-11 02:57:00,8.0,3.4,29.98,South,175,3.0,3.0,81,0.00,CLR,CLR,0.00,WeatherDisplay:10.34,2013-02-11 09:57:00,
2013-02-11 03:02:00,7.7,3.1,29.98,South,175,0.0,1.0,81,0.00,CLR,CLR,0.00,WeatherDisplay:10.34,2013-02-11 10:02:00,
2013-02-11 03:07:00,7.6,3.3,29.98,South,175,1.0,1.0,82,0.00,CLR,CLR,0.00,WeatherDisplay:10.34,2013-02-11 10:07:00,
2013-02-11 03:12:00,7.6,3.3,29.97,South,175,2.0,2.0,82,0.00,CLR,CLR,0.00,WeatherDisplay:10.34,2013-02-11 10:12:00,
2013-02-11 03:17:00,7.5,3.2,29.97,South,175,1.0,1.0,82,0.00,CLR,CLR,0.00,WeatherDisplay:10.34,2013-02-11 10:17:00,
2013-02-11 03:22:00,7.4,3.1,29.97,South,175,0.0,0.0,82,0.00,CLR,CLR,0.00,WeatherDisplay:10.34,2013-02-11 10:22:00,
2013-02-11 03:27:00,7.4,3.3,29.97,South,175,1.0,2.0,83,0.00,CLR,CLR,0.00,WeatherDisplay:10.34,2013-02-11 10:27:00,
2013-02-11 03:32:00,7.4,3.3,29.97,South,175,0.0,0.0,83,0.00,CLR,CLR,0.00,WeatherDisplay:10.34,2013-02-11 10:32:00,
2013-02-11 03:37:00,7.4,3.3,29.97,South,175,0.0,0.0,83,0.00,CLR,CLR,0.00,WeatherDisplay:10.34,2013-02-11 10:37:00,
2013-02-11 03:42:00,7.4,3.3,29.97,SW,220,3.0,3.0,83,0.00,CLR,CLR,0.00,WeatherDisplay:10.34,2013-02-11 10:42:00,
2013-02-11 03:47:00,7.4,3.3,29.97,SW,219,2.0,3.0,83,0.00,CLR,CLR,0.00,WeatherDisplay:10.34,2013-02-11 10:47:00,
2013-02-11 03:52:00,7.4,3.3,29.97,SW,220,3.0,3.0,83,0.00,CLR,CLR,0.00,WeatherDisplay:10.34,2013-02-11 10:52:00,
2013-02-11 03:57:00,7.5,3.7,29.97,SW,219,0.0,0.0,84,0.00,CLR,CLR,0.00,WeatherDisplay:10.34,2013-02-11 10:57:00,
2013-02-11 04:02:00,7.5,3.7,29.97,WSW,242,5.0,5.0,84,0.00,CLR,CLR,0.00,WeatherDisplay:10.34,2013-02-11 11:02:00,
2013-02-11 04:07:00,7.6,3.8,29.97,WSW,243,2.0,2.0,84,0.00,CLR,CLR,0.00,WeatherDisplay:10.34,2013-02-11 11:07:00,
2013-02-11 04:12:00,7.7,3.9,29.95,WSW,242,2.0,2.0,84,0.00,CLR,CLR,0.00,WeatherDisplay:10.34,2013-02-11 11:12:00,
2013-02-11 04:17:00,7.7,3.9,29.95,WSW,242,0.0,0.0,84,0.00,CLR,CLR,0.00,WeatherDisplay:10.34,2013-02-11 11:17:00,
2013-02-11 04:22:00,7.5,3.4,29.96,WSW,243,0.0,0.0,83,0.00,CLR,CLR,0.00,WeatherDisplay:10.34,2013-02-11 11:22:00,
2013-02-11 04:27:00,7.3,3.2,29.96,WSW,243,0.0,0.0,83,0.00,CLR,CLR,0.00,WeatherDisplay:10.34,2013-02-11 11:27:00,
2013-02-11 04:32:00,7.0,2.7,29.96,WSW,243,0.0,0.0,82,0.00,CLR,CLR,0.00,WeatherDisplay:10.34,2013-02-11 11:32:00,
2013-02-11 04:37:00,6.3,1.7,29.96,NNW,348,4.0,4.0,81,0.00,CLR,CLR,0.00,WeatherDisplay:10.34,2013-02-11 11:37:00,
2013-02-11 04:42:00,5.7,1.1,29.96,NNW,348,3.0,3.0,81,0.00,CLR,CLR,0.00,WeatherDisplay:10.34,2013-02-11 11:42:00,
2013-02-11 04:47:00,5.4,1.1,29.96,NNW,348,1.0,1.0,82,0.00,CLR,CLR,0.00,WeatherDisplay:10.34,2013-02-11 11:47:00,
2013-02-11 04:52:00,5.2,0.9,29.97,NNW,348,0.0,0.0,82,0.00,CLR,CLR,0.00,WeatherDisplay:10.34,2013-02-11 11:52:00,
2013-02-11 04:57:00,5.3,1.0,29.97,NNW,348,0.0,0.0,82,0.00,CLR,CLR,0.00,WeatherDisplay:10.34,2013-02-11 11:57:00,
2013-02-11 05:02:00,5.1,1.1,29.97,NNW,348,0.0,0.0,83,0.00,CLR,CLR,0.00,WeatherDisplay:10.34,2013-02-11 12:02:00,
2013-02-11 05:07:00,5.0,0.7,29.97,NNW,348,0.0,0.0,82,0.00,CLR,CLR,0.00,WeatherDisplay:10.34,2013-02-11 12:07:00,
2013-02-11 05:12:00,5.0,1.0,29.97,NNW,348,0.0,0.0,83,0.00,CLR,CLR,0.00,WeatherDisplay:10.34,2013-02-11 12:12:00,
2013-02-11 05:17:00,4.8,0.8,29.97,NNW,348,0.0,0.0,83,0.00,CLR,CLR,0.00,WeatherDisplay:10.34,2013-02-11 12:17:00,
2013-02-11 05:22:00,4.7,0.7,29.97,NNW,348,0.0,1.0,83,0.00,CLR,CLR,0.00,WeatherDisplay:10.34,2013-02-11 12:22:00,
2013-02-11 05:27:00,4.6,0.3,29.97,NNW,348,0.0,0.0,82,0.00,CLR,CLR,0.00,WeatherDisplay:10.34,2013-02-11 12:27:00,
2013-02-11 05:32:00,4.5,0.2,29.97,NNW,348,0.0,0.0,82,0.00,CLR,CLR,0.00,WeatherDisplay:10.34,2013-02-11 12:32:00,
2013-02-11 05:37:00,4.3,0.0,29.97,NNW,348,1.0,1.0,82,0.00,CLR,CLR,0.00,WeatherDisplay:10.34,2013-02-11 12:37:00,
2013-02-11 05:42:00,4.2,0.2,29.96,NNW,348,0.0,0.0,83,0.00,CLR,CLR,0.00,WeatherDisplay:10.34,2013-02-11 12:42:00,
2013-02-11 05:47:00,4.0,0.0,29.96,NNW,348,1.0,1.0,83,0.00,CLR,CLR,0.00,WeatherDisplay:10.34,2013-02-11 12:47:00,
2013-02-11 05:52:00,4.0,0.0,29.97,NNW,348,0.0,0.0,83,0.00,CLR,CLR,0.00,WeatherDisplay:10.34,2013-02-11 12:52:00,
2013-02-11 05:57:00,3.8,-0.2,29.97,NNW,348,0.0,0.0,83,0.00,CLR,CLR,0.00,WeatherDisplay:10.34,2013-02-11 12:57:00,
2013-02-11 06:02:00,3.6,-0.4,29.97,NNW,348,0.0,0.0,83,0.00,CLR,CLR,0.00,WeatherDisplay:10.34,2013-02-11 13:02:00,
2013-02-11 06:07:00,3.5,-0.5,29.97,NNW,348,0.0,0.0,83,0.00,CLR,CLR,0.00,WeatherDisplay:10.34,2013-02-11 13:07:00,
2013-02-11 06:12:00,3.3,-0.7,29.97,NNW,348,0.0,1.0,83,0.00,CLR,CLR,0.00,WeatherDisplay:10.34,2013-02-11 13:12:00,
2013-02-11 06:17:00,3.2,-0.8,29.97,NNW,348,1.0,1.0,83,0.00,CLR,CLR,0.00,WeatherDisplay:10.34,2013-02-11 13:17:00,
2013-02-11 06:22:00,3.1,-0.9,29.97,NNW,348,0.0,0.0,83,0.00,CLR,CLR,0.00,WeatherDisplay:10.34,2013-02-11 13:22:00,
2013-02-11 06:27:00,3.0,-1.0,29.97,NNW,348,0.0,0.0,83,0.00,CLR,CLR,0.00,WeatherDisplay:10.34,2013-02-11 13:27:00,
2013-02-11 06:32:00,2.8,-1.4,29.97,NNW,348,0.0,0.0,82,0.00,CLR,CLR,0.00,WeatherDisplay:10.34,2013-02-11 13:32:00,
2013-02-11 06:37:00,2.8,-1.4,29.97,NNW,348,0.0,0.0,82,0.00,CLR,CLR,0.00,WeatherDisplay:10.34,2013-02-11 13:37:00,
2013-02-11 06:42:00,2.6,-1.6,29.97,NNW,348,2.0,2.0,82,0.00,CLR,CLR,0.00,WeatherDisplay:10.34,2013-02-11 13:42:00,
2013-02-11 06:47:00,2.4,-1.8,29.97,NNW,348,0.0,1.0,82,0.00,CLR,CLR,0.00,WeatherDisplay:10.34,2013-02-11 13:47:00,
2013-02-11 06:52:00,2.4,-1.6,29.97,NNW,348,1.0,1.0,83,0.00,CLR,CLR,0.00,WeatherDisplay:10.34,2013-02-11 13:52:00,
2013-02-11 06:57:00,2.5,-1.5,29.97,NNW,348,2.0,2.0,83,0.00,CLR,CLR,0.00,WeatherDisplay:10.34,2013-02-11 13:57:00,
2013-02-11 07:02:00,2.7,-1.0,29.97,NNW,348,0.0,0.0,84,0.00,OVC,OVC,0.00,WeatherDisplay:10.34,2013-02-11 14:02:00,
2013-02-11 07:07:00,2.8,-0.9,29.97,NNW,348,0.0,0.0,84,0.00,OVC,OVC,0.00,WeatherDisplay:10.34,2013-02-11 14:07:00,
2013-02-11 07:12:00,2.8,-0.9,29.96,NNW,348,0.0,0.0,84,0.00,OVC,OVC,0.00,WeatherDisplay:10.34,2013-02-11 14:12:00,
2013-02-11 07:17:00,2.6,-1.4,29.96,NNW,348,0.0,0.0,83,0.00,OVC,OVC,0.00,WeatherDisplay:10.34,2013-02-11 14:17:00,
2013-02-11 07:22:00,2.4,-1.6,29.96,NNW,348,0.0,0.0,83,0.00,OVC,OVC,0.00,WeatherDisplay:10.34,2013-02-11 14:22:00,
2013-02-11 07:27:00,2.2,-1.8,29.96,NNW,348,1.0,1.0,83,0.00,OVC,OVC,0.00,WeatherDisplay:10.34,2013-02-11 14:27:00,
2013-02-11 07:32:00,2.2,-1.8,29.96,NNW,348,0.0,1.0,83,0.00,CLR,CLR,0.00,WeatherDisplay:10.34,2013-02-11 14:32:00,
2013-02-11 07:37:00,2.2,-1.8,29.96,West,279,2.0,2.0,83,0.00,CLR,CLR,0.00,WeatherDisplay:10.34,2013-02-11 14:37:00,
2013-02-11 07:42:00,2.5,-1.2,29.96,West,279,1.0,2.0,84,0.00,CLR,CLR,0.00,WeatherDisplay:10.34,2013-02-11 14:42:00,
2013-02-11 07:47:00,2.8,-0.9,29.96,NNW,337,6.0,6.0,84,0.00,CLR,CLR,0.00,WeatherDisplay:10.34,2013-02-11 14:47:00,
2013-02-11 07:52:00,3.0,-0.7,29.96,NNW,337,4.0,4.0,84,0.00,CLR,CLR,0.00,WeatherDisplay:10.34,2013-02-11 14:52:00,
2013-02-11 07:57:00,3.3,-0.4,29.96,NNW,336,3.0,3.0,84,0.00,CLR,CLR,0.00,WeatherDisplay:10.34,2013-02-11 14:57:00,
2013-02-11 08:02:00,3.7,-0.1,29.96,NNW,336,2.0,2.0,84,0.00,CLR,CLR,0.00,WeatherDisplay:10.34,2013-02-11 15:02:00,
2013-02-11 08:07:00,4.2,0.7,29.96,NNW,336,3.0,3.0,85,0.00,CLR,CLR,0.00,WeatherDisplay:10.34,2013-02-11 15:07:00,
2013-02-11 08:12:00,4.6,1.1,29.96,NNW,336,4.0,5.0,85,0.00,CLR,CLR,0.00,WeatherDisplay:10.34,2013-02-11 15:12:00,
2013-02-11 08:17:00,5.1,1.6,29.96,NNW,336,6.0,6.0,85,0.00,CLR,CLR,0.00,WeatherDisplay:10.34,2013-02-11 15:17:00,
2013-02-11 08:22:00,5.6,2.1,29.97,NNW,336,5.0,5.0,85,0.00,CLR,CLR,0.00,WeatherDisplay:10.34,2013-02-11 15:22:00,
2013-02-11 08:27:00,6.3,2.8,29.97,NNW,336,2.0,2.0,85,0.00,CLR,CLR,0.00,WeatherDisplay:10.34,2013-02-11 15:27:00,
2013-02-11 08:32:00,7.0,3.4,29.97,NNW,338,7.0,8.0,85,0.00,CLR,CLR,0.00,WeatherDisplay:10.34,2013-02-11 15:32:00,
2013-02-11 08:37:00,7.4,3.8,29.97,NNW,343,3.0,3.0,85,0.00,CLR,CLR,0.00,WeatherDisplay:10.34,2013-02-11 15:37:00,
2013-02-11 08:42:00,7.9,4.3,29.97,North,355,4.0,4.0,85,0.00,CLR,CLR,0.00,WeatherDisplay:10.34,2013-02-11 15:42:00,
2013-02-11 08:47:00,8.2,4.6,29.97,NNW,345,4.0,7.0,85,0.00,CLR,CLR,0.00,WeatherDisplay:10.34,2013-02-11 15:47:00,
2013-02-11 08:52:00,8.6,5.0,29.97,North,360,3.0,3.0,85,0.00,CLR,CLR,0.00,WeatherDisplay:10.34,2013-02-11 15:52:00,
2013-02-11 08:57:00,9.1,5.5,29.97,North,355,1.0,2.0,85,0.00,CLR,CLR,0.00,WeatherDisplay:10.34,2013-02-11 15:57:00,
2013-02-11 09:02:00,9.6,6.0,29.97,NNW,344,4.0,5.0,85,0.00,CLR,CLR,0.00,WeatherDisplay:10.34,2013-02-11 16:02:00,
2013-02-11 09:07:00,10.0,6.4,29.97,North,360,3.0,3.0,85,0.00,CLR,CLR,0.00,WeatherDisplay:10.34,2013-02-11 16:07:00,
2013-02-11 09:12:00,10.5,6.6,29.97,NNW,337,4.0,4.0,84,0.00,CLR,CLR,0.00,WeatherDisplay:10.34,2013-02-11 16:12:00,
2013-02-11 09:17:00,10.8,6.9,29.97,NNW,346,5.0,5.0,84,0.00,CLR,CLR,0.00,WeatherDisplay:10.34,2013-02-11 16:17:00,
2013-02-11 09:22:00,11.1,6.9,29.97,NE,48,3.0,3.0,83,0.00,CLR,CLR,0.00,WeatherDisplay:10.34,2013-02-11 16:22:00,
2013-02-11 09:27:00,11.8,7.6,29.97,NNE,22,4.0,4.0,83,0.00,CLR,CLR,0.00,WeatherDisplay:10.34,2013-02-11 16:27:00,
2013-02-11 09:32:00,12.2,7.8,29.97,North,350,6.0,7.0,82,0.00,CLR,CLR,0.00,WeatherDisplay:10.34,2013-02-11 16:32:00,
2013-02-11 09:37:00,12.4,7.7,29.97,NNW,344,4.0,4.0,81,0.00,CLR,CLR,0.00,WeatherDisplay:10.34,2013-02-11 16:37:00,
2013-02-11 09:42:00,12.9,8.2,29.97,NE,48,1.0,2.0,81,0.00,CLR,CLR,0.00,WeatherDisplay:10.34,2013-02-11 16:42:00,
2013-02-11 09:47:00,13.1,8.1,29.97,NE,55,3.0,3.0,80,0.00,CLR,CLR,0.00,WeatherDisplay:10.34,2013-02-11 16:47:00,
2013-02-11 09:52:00,13.5,8.5,29.96,NE,52,4.0,4.0,80,0.00,CLR,CLR,0.00,WeatherDisplay:10.34,2013-02-11 16:52:00,
2013-02-11 09:57:00,14.2,8.9,29.96,North,355,6.0,7.0,79,0.00,CLR,CLR,0.00,WeatherDisplay:10.34,2013-02-11 16:57:00,
2013-02-11 10:02:00,14.9,9.6,29.97,ENE,63,3.0,3.0,79,0.00,CLR,CLR,0.00,WeatherDisplay:10.34,2013-02-11 17:02:00,
2013-02-11 10:08:00,15.7,10.1,29.97,NE,55,4.0,7.0,78,0.00,CLR,CLR,0.00,WeatherDisplay:10.34,2013-02-11 17:08:00,
2013-02-11 10:13:00,16.2,10.0,29.96,North,360,4.0,7.0,76,0.00,CLR,CLR,0.00,WeatherDisplay:10.34,2013-02-11 17:13:00,
2013-02-11 10:18:00,16.2,10.0,29.96,NNW,347,8.0,8.0,76,0.00,CLR,CLR,0.00,WeatherDisplay:10.34,2013-02-11 17:18:00,
2013-02-11 10:23:00,16.4,10.4,29.97,NE,53,5.0,7.0,77,0.00,CLR,CLR,0.00,WeatherDisplay:10.34,2013-02-11 17:23:00,
2013-02-11 10:28:00,17.1,10.8,29.96,East,80,2.0,3.0,76,0.00,CLR,CLR,0.00,WeatherDisplay:10.34,2013-02-11 17:28:00,
2013-02-11 10:33:00,17.8,11.2,29.96,North,355,6.0,8.0,75,0.00,CLR,CLR,0.00,WeatherDisplay:10.34,2013-02-11 17:33:00,
2013-02-11 10:38:00,17.9,11.3,29.96,NNE,22,6.0,9.0,75,0.00,CLR,CLR,0.00,WeatherDisplay:10.34,2013-02-11 17:38:00,
2013-02-11 10:43:00,18.6,12.0,29.96,ENE,71,5.0,9.0,75,0.00,CLR,CLR,0.00,WeatherDisplay:10.34,2013-02-11 17:43:00,
2013-02-11 10:48:00,19.4,12.5,29.96,NE,45,5.0,5.0,74,0.00,CLR,CLR,0.00,WeatherDisplay:10.34,2013-02-11 17:48:00,
2013-02-11 10:53:00,20.1,12.8,29.96,NE,52,6.0,7.0,73,0.00,CLR,CLR,0.00,WeatherDisplay:10.34,2013-02-11 17:53:00,
2013-02-11 10:58:00,20.9,13.0,29.96,NE,52,4.0,5.0,71,0.00,CLR,CLR,0.00,WeatherDisplay:10.34,2013-02-11 17:58:00,
2013-02-11 11:03:00,21.7,13.4,29.96,East,79,9.0,12.0,70,0.00,CLR,CLR,0.00,WeatherDisplay:10.34,2013-02-11 18:03:00,
2013-02-11 11:08:00,22.3,13.3,29.96,ESE,111,10.0,13.0,68,0.00,CLR,CLR,0.00,WeatherDisplay:10.34,2013-02-11 18:08:00,
2013-02-11 11:13:00,22.6,13.3,29.95,East,85,7.0,9.0,67,0.00,CLR,CLR,0.00,WeatherDisplay:10.34,2013-02-11 18:13:00,
2013-02-11 11:18:00,23.2,13.5,29.95,ENE,60,9.0,10.0,66,0.00,CLR,CLR,0.00,WeatherDisplay:10.34,2013-02-11 18:18:00,
2013-02-11 11:23:00,23.8,13.7,29.95,ENE,69,9.0,12.0,65,0.00,CLR,CLR,0.00,WeatherDisplay:10.34,2013-02-11 18:23:00,
2013-02-11 11:28:00,24.3,14.2,29.95,East,88,12.0,12.0,65,0.00,CLR,CLR,0.00,WeatherDisplay:10.34,2013-02-11 18:28:00,
2013-02-11 11:33:00,24.5,14.1,29.94,ESE,103,11.0,12.0,64,0.00,CLR,CLR,0.00,WeatherDisplay:10.34,2013-02-11 18:33:00,
2013-02-11 11:38:00,24.9,14.4,29.94,ESE,106,11.0,11.0,64,0.00,CLR,CLR,0.00,WeatherDisplay:10.34,2013-02-11 18:38:00,
2013-02-11 11:43:00,25.4,14.9,29.94,ENE,66,13.0,14.0,64,0.00,CLR,CLR,0.00,WeatherDisplay:10.34,2013-02-11 18:43:00,
2013-02-11 11:48:00,25.8,14.6,29.94,East,100,12.0,12.0,62,0.00,CLR,CLR,0.00,WeatherDisplay:10.34,2013-02-11 18:48:00,
2013-02-11 11:53:00,26.3,15.0,29.93,ENE,67,11.0,13.0,62,0.00,CLR,CLR,0.00,WeatherDisplay:10.34,2013-02-11 18:53:00,
2013-02-11 11:58:00,26.5,15.2,29.93,East,98,13.0,13.0,62,0.00,CLR,CLR,0.00,WeatherDisplay:10.34,2013-02-11 18:58:00,
2013-02-11 12:03:00,26.7,14.7,29.93,East,90,11.0,11.0,60,0.00,CLR,CLR,0.00,WeatherDisplay:10.34,2013-02-11 19:03:00,
2013-02-11 12:08:00,26.9,15.6,29.93,East,92,10.0,10.0,62,0.00,CLR,CLR,0.00,WeatherDisplay:10.34,2013-02-11 19:08:00,
2013-02-11 12:13:00,27.2,15.5,29.92,East,80,12.0,13.0,61,0.00,CLR,CLR,0.00,WeatherDisplay:10.34,2013-02-11 19:13:00,
2013-02-11 12:18:00,27.2,15.1,29.92,ESE,118,13.0,14.0,60,0.00,CLR,CLR,0.00,WeatherDisplay:10.34,2013-02-11 19:18:00,
2013-02-11 12:24:00,27.2,14.8,29.92,NE,44,15.0,15.0,59,0.00,CLR,CLR,0.00,WeatherDisplay:10.34,2013-02-11 19:24:00,
2013-02-11 12:29:00,27.4,15.3,29.92,ENE,74,9.0,12.0,60,0.00,CLR,CLR,0.00,WeatherDisplay:10.34,2013-02-11 19:29:00,
2013-02-11 12:34:00,27.6,15.1,29.91,ENE,68,15.0,16.0,59,0.00,CLR,CLR,0.00,WeatherDisplay:10.34,2013-02-11 19:34:00,
2013-02-11 12:39:00,27.6,15.1,29.91,ESE,106,15.0,16.0,59,0.00,CLR,CLR,0.00,WeatherDisplay:10.34,2013-02-11 19:39:00,
2013-02-11 12:44:00,27.6,15.1,29.91,East,92,14.0,16.0,59,0.00,CLR,CLR,0.00,WeatherDisplay:10.34,2013-02-11 19:44:00,
2013-02-11 12:49:00,27.8,15.7,29.91,East,101,13.0,13.0,60,0.00,CLR,CLR,0.00,WeatherDisplay:10.34,2013-02-11 19:49:00,
2013-02-11 12:54:00,27.9,15.0,29.91,East,94,19.0,19.0,58,0.00,CLR,CLR,0.00,WeatherDisplay:10.34,2013-02-11 19:54:00,
2013-02-11 12:59:00,27.6,15.1,29.91,East,79,17.0,17.0,59,0.00,CLR,CLR,0.00,WeatherDisplay:10.34,2013-02-11 19:59:00,
2013-02-11 13:04:00,27.6,15.1,29.91,NE,55,15.0,16.0,59,0.00,CLR,CLR,0.00,WeatherDisplay:10.34,2013-02-11 20:04:00,
2013-02-11 13:09:00,28.0,15.9,29.91,ENE,73,14.0,0.0,60,0.00,CLR,CLR,0.00,WeatherDisplay:10.34,2013-02-11 20:09:00,
2013-02-11 13:14:00,28.1,15.6,29.90,ESE,105,14.0,14.0,59,0.00,CLR,CLR,0.00,WeatherDisplay:10.34,2013-02-11 20:14:00,
2013-02-11 13:19:00,28.2,16.1,29.90,ENE,61,12.0,12.0,60,0.00,CLR,CLR,0.00,WeatherDisplay:10.34,2013-02-11 20:19:00,
2013-02-11 13:24:00,28.4,15.9,29.90,East,93,16.0,16.0,59,0.00,CLR,CLR,0.00,WeatherDisplay:10.34,2013-02-11 20:24:00,
2013-02-11 13:29:00,28.5,16.0,29.90,NE,52,12.0,14.0,59,0.00,CLR,CLR,0.00,WeatherDisplay:10.34,2013-02-11 20:29:00,
2013-02-11 13:34:00,28.4,15.5,29.90,ENE,75,13.0,14.0,58,0.00,CLR,CLR,0.00,WeatherDisplay:10.34,2013-02-11 20:34:00,
2013-02-11 13:39:00,28.2,15.3,29.90,ESE,102,11.0,13.0,58,0.00,CLR,CLR,0.00,WeatherDisplay:10.34,2013-02-11 20:39:00,
2013-02-11 13:44:00,28.5,15.6,29.90,East,87,14.0,14.0,58,0.00,CLR,CLR,0.00,WeatherDisplay:10.34,2013-02-11 20:44:00,
2013-02-11 13:49:00,28.5,15.6,29.90,East,83,12.0,12.0,58,0.00,CLR,CLR,0.00,WeatherDisplay:10.34,2013-02-11 20:49:00,
2013-02-11 13:54:00,28.4,15.9,29.90,NE,38,16.0,17.0,59,0.00,CLR,CLR,0.00,WeatherDisplay:10.34,2013-02-11 20:54:00,
2013-02-11 13:59:00,28.5,15.6,29.90,ENE,76,16.0,16.0,58,0.00,CLR,CLR,0.00,WeatherDisplay:10.34,2013-02-11 20:59:00,
2013-02-11 14:04:00,28.6,15.7,29.90,East,100,13.0,13.0,58,0.00,CLR,CLR,0.00,WeatherDisplay:10.34,2013-02-11 21:04:00,
2013-02-11 14:09:00,28.8,15.9,29.90,East,92,13.0,0.0,58,0.00,CLR,CLR,0.00,WeatherDisplay:10.34,2013-02-11 21:09:00,
2013-02-11 14:14:00,29.0,16.1,29.90,ENE,71,13.0,15.0,58,0.00,CLR,CLR,0.00,WeatherDisplay:10.34,2013-02-11 21:14:00,
2013-02-11 14:19:00,29.0,16.1,29.90,ENE,64,12.0,0.0,58,0.00,CLR,CLR,0.00,WeatherDisplay:10.34,2013-02-11 21:19:00,
2013-02-11 14:24:00,29.2,15.8,29.89,North,360,13.0,15.0,57,0.00,CLR,CLR,0.00,WeatherDisplay:10.34,2013-02-11 21:24:00,
2013-02-11 14:29:00,29.2,15.8,29.89,ENE,71,14.0,14.0,57,0.00,CLR,CLR,0.00,WeatherDisplay:10.34,2013-02-11 21:29:00,
2013-02-11 14:34:00,29.2,15.8,29.89,ENE,57,8.0,9.0,57,0.00,CLR,CLR,0.00,WeatherDisplay:10.34,2013-02-11 21:34:00,
2013-02-11 14:39:00,29.4,16.0,29.89,East,93,14.0,14.0,57,0.00,CLR,CLR,0.00,WeatherDisplay:10.34,2013-02-11 21:39:00,
2013-02-11 14:44:00,29.3,15.5,29.89,NE,53,13.0,14.0,56,0.00,CLR,CLR,0.00,WeatherDisplay:10.34,2013-02-11 21:44:00,
2013-02-11 14:49:00,29.3,15.9,29.89,NE,54,13.0,13.0,57,0.00,CLR,CLR,0.00,WeatherDisplay:10.34,2013-02-11 21:49:00,
2013-02-11 14:54:00,29.1,15.3,29.89,ENE,57,12.0,14.0,56,0.00,CLR,CLR,0.00,WeatherDisplay:10.34,2013-02-11 21:54:00,
2013-02-11 14:59:00,29.0,15.2,29.89,East,81,15.0,16.0,56,0.00,CLR,CLR,0.00,WeatherDisplay:10.34,2013-02-11 21:59:00,
2013-02-11 15:04:00,28.9,15.6,29.89,ENE,69,16.0,16.0,57,0.00,CLR,CLR,0.00,WeatherDisplay:10.34,2013-02-11 22:04:00,
2013-02-11 15:09:00,28.6,16.8,29.89,ENE,78,16.0,16.0,61,0.00,CLR,CLR,0.00,WeatherDisplay:10.34,2013-02-11 22:09:00,
2013-02-11 15:14:00,28.2,14.9,29.90,East,88,11.0,12.0,57,0.00,CLR,CLR,0.00,WeatherDisplay:10.34,2013-02-11 22:14:00,
2013-02-11 15:19:00,28.1,14.8,29.90,ENE,77,11.0,0.0,57,0.00,CLR,CLR,0.00,WeatherDisplay:10.34,2013-02-11 22:19:00,
2013-02-11 15:24:00,28.3,15.4,29.89,ESE,107,11.0,13.0,58,0.00,CLR,CLR,0.00,WeatherDisplay:10.34,2013-02-11 22:24:00,
2013-02-11 15:29:00,28.3,15.0,29.89,ENE,68,8.0,8.0,57,0.00,CLR,CLR,0.00,WeatherDisplay:10.34,2013-02-11 22:29:00,
2013-02-11 15:34:00,28.4,15.1,29.89,NE,44,13.0,14.0,57,0.00,SCT,SCT,0.00,WeatherDisplay:10.34,2013-02-11 22:34:00,
2013-02-11 15:39:00,28.0,14.7,29.89,East,90,15.0,15.0,57,0.00,CLR,CLR,0.00,WeatherDisplay:10.34,2013-02-11 22:39:00,
2013-02-11 15:44:00,27.7,14.4,29.90,East,79,15.0,15.0,57,0.00,CLR,CLR,0.00,WeatherDisplay:10.34,2013-02-11 22:44:00,
2013-02-11 15:49:00,27.8,14.9,29.90,ESE,112,12.0,12.0,58,0.00,CLR,CLR,0.00,WeatherDisplay:10.34,2013-02-11 22:49:00,
2013-02-11 15:54:00,28.1,15.2,29.89,ENE,69,14.0,14.0,58,0.00,CLR,CLR,0.00,WeatherDisplay:10.34,2013-02-11 22:54:00,
2013-02-11 15:59:00,28.0,14.7,29.89,East,90,10.0,14.0,57,0.00,FEW,FEW,0.00,WeatherDisplay:10.34,2013-02-11 22:59:00,
2013-02-11 16:04:00,27.4,14.1,29.89,ENE,78,14.0,15.0,57,0.00,SCT,SCT,0.00,WeatherDisplay:10.34,2013-02-11 23:04:00,
2013-02-11 16:09:00,26.9,14.5,29.89,ESE,117,12.0,12.0,59,0.00,SCT,SCT,0.00,WeatherDisplay:10.34,2013-02-11 23:09:00,
2013-02-11 16:14:00,26.6,14.2,29.89,East,92,14.0,14.0,59,0.00,SCT,SCT,0.00,WeatherDisplay:10.34,2013-02-11 23:14:00,
2013-02-11 16:19:00,26.3,14.3,29.89,ESE,103,9.0,0.0,60,0.00,FEW,FEW,0.00,WeatherDisplay:10.34,2013-02-11 23:19:00,
2013-02-11 16:24:00,26.0,14.0,29.89,ENE,76,10.0,13.0,60,0.00,CLR,CLR,0.00,WeatherDisplay:10.34,2013-02-11 23:24:00,
2013-02-11 16:29:00,25.8,14.2,29.89,East,91,9.0,9.0,61,0.00,CLR,CLR,0.00,WeatherDisplay:10.34,2013-02-11 23:29:00,
2013-02-11 16:34:00,25.8,13.8,29.89,East,86,12.0,13.0,60,0.00,SCT,SCT,0.00,WeatherDisplay:10.34,2013-02-11 23:34:00,
2013-02-11 16:39:00,25.4,13.4,29.89,East,86,10.0,10.0,60,0.00,SCT,SCT,0.00,WeatherDisplay:10.34,2013-02-11 23:39:00,
2013-02-11 16:44:00,25.2,13.6,29.89,NE,49,12.0,12.0,61,0.00,FEW,FEW,0.00,WeatherDisplay:10.34,2013-02-11 23:44:00,
2013-02-11 16:49:00,25.1,13.5,29.89,East,96,12.0,12.0,61,0.00,CLR,CLR,0.00,WeatherDisplay:10.34,2013-02-11 23:49:00,
2013-02-11 16:55:00,24.9,13.7,29.89,ENE,67,7.0,7.0,62,0.00,FEW,FEW,0.00,WeatherDisplay:10.34,2013-02-11 23:55:00,
2013-02-11 17:00:00,24.8,13.2,29.89,East,85,9.0,10.0,61,0.00,FEW,FEW,0.00,WeatherDisplay:10.34,2013-02-12 00:00:00,
2013-02-11 17:05:00,24.6,13.1,29.89,East,89,12.0,12.0,61,0.00,FEW,FEW,0.00,WeatherDisplay:10.34,2013-02-12 00:05:00,
2013-02-11 17:10:00,24.4,13.2,29.89,NE,44,8.0,9.0,62,0.00,FEW,FEW,0.00,WeatherDisplay:10.34,2013-02-12 00:10:00,
2013-02-11 17:15:00,24.2,13.0,29.89,ENE,64,6.0,6.0,62,0.00,FEW,FEW,0.00,WeatherDisplay:10.34,2013-02-12 00:15:00,
2013-02-11 17:20:00,24.0,12.9,29.88,NE,54,10.0,10.0,62,0.00,CLR,CLR,0.00,WeatherDisplay:10.34,2013-02-12 00:20:00,
2013-02-11 17:25:00,23.7,12.6,29.88,ENE,73,10.0,10.0,62,0.00,CLR,CLR,0.00,WeatherDisplay:10.34,2013-02-12 00:25:00,
2013-02-11 17:30:00,23.6,12.8,29.88,NE,47,5.0,5.0,63,0.00,OVC,OVC,0.00,WeatherDisplay:10.34,2013-02-12 00:30:00,
2013-02-11 17:35:00,23.3,12.9,29.88,NE,51,7.0,7.0,64,0.00,OVC,OVC,0.00,WeatherDisplay:10.34,2013-02-12 00:35:00,
2013-02-11 17:40:00,23.0,12.6,29.89,North,5,4.0,4.0,64,0.00,OVC,OVC,0.00,WeatherDisplay:10.34,2013-02-12 00:40:00,
2013-02-11 17:45:00,22.6,12.6,29.89,NNE,17,3.0,5.0,65,0.00,OVC,OVC,0.00,WeatherDisplay:10.34,2013-02-12 00:45:00,
2013-02-11 17:50:00,21.9,11.9,29.89,NE,42,5.0,0.0,65,0.00,OVC,OVC,0.00,WeatherDisplay:10.34,2013-02-12 00:50:00,
2013-02-11 17:55:00,21.3,11.7,29.89,North,5,6.0,7.0,66,0.00,OVC,OVC,0.00,WeatherDisplay:10.34,2013-02-12 00:55:00,
2013-02-11 18:00:00,20.7,11.5,29.89,North,355,9.0,9.0,67,0.00,CLR,CLR,0.00,WeatherDisplay:10.34,2013-02-12 01:00:00,
2013-02-11 18:05:00,20.2,11.0,29.90,North,355,5.0,7.0,67,0.00,CLR,CLR,0.00,WeatherDisplay:10.34,2013-02-12 01:05:00,
2013-02-11 18:10:00,19.8,10.6,29.90,NNE,21,7.0,7.0,67,0.00,CLR,CLR,0.00,WeatherDisplay:10.34,2013-02-12 01:10:00,
2013-02-11 18:15:00,19.6,10.7,29.90,NNE,15,8.0,8.0,68,0.00,CLR,CLR,0.00,WeatherDisplay:10.34,2013-02-12 01:15:00,
2013-02-11 18:20:00,19.2,10.4,29.90,NNW,331,5.0,7.0,68,0.00,CLR,CLR,0.00,WeatherDisplay:10.34,2013-02-12 01:20:00,
2013-02-11 18:25:00,18.8,10.3,29.90,NNW,340,6.0,6.0,69,0.00,CLR,CLR,0.00,WeatherDisplay:10.34,2013-02-12 01:25:00,
2013-02-11 18:30:00,18.4,9.9,29.90,North,360,5.0,5.0,69,0.00,CLR,CLR,0.00,WeatherDisplay:10.34,2013-02-12 01:30:00,
2013-02-11 18:35:00,18.0,9.9,29.90,NNW,340,5.0,5.0,70,0.00,CLR,CLR,0.00,WeatherDisplay:10.34,2013-02-12 01:35:00,
2013-02-11 18:40:00,17.9,9.8,29.90,NNW,341,6.0,6.0,70,0.00,CLR,CLR,0.00,WeatherDisplay:10.34,2013-02-12 01:40:00,
2013-02-11 18:45:00,17.3,9.5,29.90,NNW,336,6.0,8.0,71,0.00,CLR,CLR,0.00,WeatherDisplay:10.34,2013-02-12 01:45:00,
2013-02-11 18:50:00,17.0,9.2,29.90,NNW,327,5.0,0.0,71,0.00,CLR,CLR,0.00,WeatherDisplay:10.34,2013-02-12 01:50:00,
2013-02-11 18:55:00,16.6,9.1,29.91,NNW,338,7.0,7.0,72,0.00,CLR,CLR,0.00,WeatherDisplay:10.34,2013-02-12 01:55:00,
2013-02-11 19:00:00,16.3,9.2,29.91,NNW,327,4.0,4.0,73,0.00,CLR,CLR,0.00,WeatherDisplay:10.34,2013-02-12 02:00:00,
2013-02-11 19:05:00,16.2,9.1,29.91,NNW,346,3.0,3.0,73,0.00,CLR,CLR,0.00,WeatherDisplay:10.34,2013-02-12 02:05:00,
2013-02-11 19:10:00,16.1,9.0,29.90,NNW,346,4.0,4.0,73,0.00,CLR,CLR,0.00,WeatherDisplay:10.34,2013-02-12 02:10:00,
2013-02-11 19:15:00,16.0,9.2,29.90,NW,326,4.0,5.0,74,0.00,CLR,CLR,0.00,WeatherDisplay:10.34,2013-02-12 02:15:00,
2013-02-11 19:20:00,16.1,9.3,29.90,NNW,341,6.0,6.0,74,0.00,CLR,CLR,0.00,WeatherDisplay:10.34,2013-02-12 02:20:00,
2013-02-11 19:25:00,16.1,9.3,29.90,NNW,343,6.0,7.0,74,0.00,CLR,CLR,0.00,WeatherDisplay:10.34,2013-02-12 02:25:00,
2013-02-11 19:30:00,16.0,9.2,29.90,NNW,343,4.0,4.0,74,0.00,CLR,CLR,0.00,WeatherDisplay:10.34,2013-02-12 02:30:00,
2013-02-11 19:35:00,15.9,9.1,29.90,NW,318,4.0,5.0,74,0.00,CLR,CLR,0.00,WeatherDisplay:10.34,2013-02-12 02:35:00,
2013-02-11 19:40:00,15.7,8.6,29.90,NNW,343,6.0,7.0,73,0.00,CLR,CLR,0.00,WeatherDisplay:10.34,2013-02-12 02:40:00,
2013-02-11 19:45:00,15.5,8.7,29.90,NNW,343,6.0,6.0,74,0.00,CLR,CLR,0.00,WeatherDisplay:10.34,2013-02-12 02:45:00,
2013-02-11 19:50:00,15.4,8.6,29.90,NNW,342,6.0,6.0,74,0.00,CLR,CLR,0.00,WeatherDisplay:10.34,2013-02-12 02:50:00,
2013-02-11 19:55:00,15.3,8.5,29.90,NNW,342,5.0,5.0,74,0.00,CLR,CLR,0.00,WeatherDisplay:10.34,2013-02-12 02:55:00,
2013-02-11 20:00:00,15.3,8.5,29.90,NNW,342,5.0,5.0,74,0.00,CLR,CLR,0.00,WeatherDisplay:10.34,2013-02-12 03:00:00,
2013-02-11 20:05:00,15.1,8.3,29.90,NNW,343,3.0,3.0,74,0.00,CLR,CLR,0.00,WeatherDisplay:10.34,2013-02-12 03:05:00,
2013-02-11 20:10:00,14.9,8.4,29.90,NNW,343,4.0,4.0,75,0.00,CLR,CLR,0.00,WeatherDisplay:10.34,2013-02-12 03:10:00,
2013-02-11 20:15:00,14.8,8.0,29.91,NNW,342,2.0,3.0,74,0.00,CLR,CLR,0.00,WeatherDisplay:10.34,2013-02-12 03:15:00,
2013-02-11 20:20:00,14.7,8.2,29.91,NW,325,3.0,0.0,75,0.00,CLR,CLR,0.00,WeatherDisplay:10.34,2013-02-12 03:20:00,
2013-02-11 20:25:00,14.6,8.1,29.91,NW,325,3.0,3.0,75,0.00,CLR,CLR,0.00,WeatherDisplay:10.34,2013-02-12 03:25:00,
2013-02-11 20:30:00,14.6,8.1,29.91,NNW,334,4.0,4.0,75,0.00,CLR,CLR,0.00,WeatherDisplay:10.34,2013-02-12 03:30:00,
2013-02-11 20:35:00,14.6,8.1,29.92,NNW,334,5.0,5.0,75,0.00,CLR,CLR,0.00,WeatherDisplay:10.34,2013-02-12 03:35:00,
2013-02-11 20:40:00,14.5,8.0,29.92,NNW,342,6.0,6.0,75,0.00,CLR,CLR,0.00,WeatherDisplay:10.34,2013-02-12 03:40:00,
2013-02-11 20:45:00,14.3,7.8,29.92,NNW,341,5.0,5.0,75,0.00,CLR,CLR,0.00,WeatherDisplay:10.34,2013-02-12 03:45:00,
2013-02-11 20:50:00,14.3,7.8,29.92,NNW,342,2.0,2.0,75,0.00,CLR,CLR,0.00,WeatherDisplay:10.34,2013-02-12 03:50:00,
2013-02-11 20:55:00,14.1,7.6,29.92,NNW,341,0.0,0.0,75,0.00,CLR,CLR,0.00,WeatherDisplay:10.34,2013-02-12 03:55:00,
2013-02-11 21:00:00,14.0,9.8,29.92,NNW,342,0.0,0.0,83,0.00,CLR,CLR,0.00,WeatherDisplay:10.34,2013-02-12 04:00:00,
2013-02-11 21:05:00,13.9,7.4,29.92,NNW,342,0.0,1.0,75,0.00,CLR,CLR,0.00,WeatherDisplay:10.34,2013-02-12 04:05:00,
2013-02-11 21:10:00,13.8,7.6,29.92,NNW,342,0.0,0.0,76,0.00,CLR,CLR,0.00,WeatherDisplay:10.34,2013-02-12 04:10:00,
2013-02-11 21:15:00,13.7,7.5,29.92,NW,321,2.0,2.0,76,0.00,CLR,CLR,0.00,WeatherDisplay:10.34,2013-02-12 04:15:00,
2013-02-11 21:20:00,13.7,7.5,29.92,NW,321,1.0,0.0,76,0.00,CLR,CLR,0.00,WeatherDisplay:10.34,2013-02-12 04:20:00,
2013-02-11 21:25:00,13.6,7.4,29.92,NW,321,0.0,0.0,76,0.00,CLR,CLR,0.00,WeatherDisplay:10.34,2013-02-12 04:25:00,
2013-02-11 21:30:00,13.6,7.4,29.92,NW,321,0.0,0.0,76,0.00,CLR,CLR,0.00,WeatherDisplay:10.34,2013-02-12 04:30:00,
2013-02-11 21:35:00,13.5,7.3,29.92,NW,321,1.0,2.0,76,0.00,CLR,CLR,0.00,WeatherDisplay:10.34,2013-02-12 04:35:00,
2013-02-11 21:40:00,13.4,7.5,29.92,NW,321,0.0,0.0,77,0.00,CLR,CLR,0.00,WeatherDisplay:10.34,2013-02-12 04:40:00,
2013-02-11 21:45:00,13.4,7.2,29.93,NW,321,1.0,1.0,76,0.00,CLR,CLR,0.00,WeatherDisplay:10.34,2013-02-12 04:45:00,
2013-02-11 21:50:00,13.4,7.5,29.93,NW,321,0.0,0.0,77,0.00,CLR,CLR,0.00,WeatherDisplay:10.34,2013-02-12 04:50:00,
2013-02-11 21:55:00,13.4,7.5,29.92,NW,321,0.0,1.0,77,0.00,CLR,CLR,0.00,WeatherDisplay:10.34,2013-02-12 04:55:00,
2013-02-11 22:00:00,13.4,7.5,29.92,NW,321,0.0,1.0,77,0.00,CLR,CLR,0.00,WeatherDisplay:10.34,2013-02-12 05:00:00,
2013-02-11 22:05:00,13.4,7.5,29.92,NW,321,1.0,1.0,77,0.00,CLR,CLR,0.00,WeatherDisplay:10.34,2013-02-12 05:05:00,
2013-02-11 22:10:00,13.4,7.5,29.92,NW,321,0.0,0.0,77,0.00,CLR,CLR,0.00,WeatherDisplay:10.34,2013-02-12 05:10:00,
2013-02-11 22:15:00,13.4,7.5,29.93,NW,321,0.0,0.0,77,0.00,CLR,CLR,0.00,WeatherDisplay:10.34,2013-02-12 05:15:00,
2013-02-11 22:20:00,13.4,7.5,29.93,NW,321,0.0,0.0,77,0.00,CLR,CLR,0.00,WeatherDisplay:10.34,2013-02-12 05:20:00,
2013-02-11 22:25:00,13.3,7.4,29.93,NW,321,0.0,0.0,77,0.00,CLR,CLR,0.00,WeatherDisplay:10.34,2013-02-12 05:25:00,
2013-02-11 22:30:00,13.2,7.3,29.93,NW,321,0.0,0.0,77,0.00,CLR,CLR,0.00,WeatherDisplay:10.34,2013-02-12 05:30:00,
2013-02-11 22:35:00,13.0,6.9,29.93,NW,321,0.0,0.0,76,0.00,CLR,CLR,0.00,WeatherDisplay:10.34,2013-02-12 05:35:00,
2013-02-11 22:40:00,12.9,6.8,29.93,NW,321,3.0,3.0,76,0.00,CLR,CLR,0.00,WeatherDisplay:10.34,2013-02-12 05:40:00,
2013-02-11 22:45:00,12.8,6.9,29.93,NW,321,0.0,1.0,77,0.00,CLR,CLR,0.00,WeatherDisplay:10.34,2013-02-12 05:45:00,
2013-02-11 22:50:00,12.8,6.9,29.93,NW,321,0.0,1.0,77,0.00,CLR,CLR,0.00,WeatherDisplay:10.34,2013-02-12 05:50:00,
2013-02-11 22:55:00,12.7,6.9,29.93,NW,321,2.0,2.0,77,0.00,CLR,CLR,0.00,WeatherDisplay:10.34,2013-02-12 05:55:00,
2013-02-11 23:00:00,12.6,6.8,29.93,NW,321,1.0,0.0,77,0.00,CLR,CLR,0.00,WeatherDisplay:10.34,2013-02-12 06:00:00,
2013-02-11 23:05:00,12.5,6.4,29.93,NW,321,0.0,0.0,76,0.00,CLR,CLR,0.00,WeatherDisplay:10.34,2013-02-12 06:05:00,
2013-02-11 23:10:00,12.4,6.3,29.93,NW,321,0.0,0.0,76,0.00,CLR,CLR,0.00,WeatherDisplay:10.34,2013-02-12 06:10:00,
2013-02-11 23:15:00,12.3,6.2,29.93,NW,321,0.0,0.0,76,0.00,CLR,CLR,0.00,WeatherDisplay:10.34,2013-02-12 06:15:00,
2013-02-11 23:20:00,12.1,6.0,29.93,NW,321,1.0,0.0,76,0.00,CLR,CLR,0.00,WeatherDisplay:10.34,2013-02-12 06:20:00,
2013-02-11 23:25:00,11.9,6.1,29.93,NW,321,0.0,0.0,77,0.00,CLR,CLR,0.00,WeatherDisplay:10.34,2013-02-12 06:25:00,
2013-02-11 23:30:00,11.9,6.1,29.93,NW,321,0.0,0.0,77,0.00,CLR,CLR,0.00,WeatherDisplay:10.34,2013-02-12 06:30:00,
2013-02-11 23:35:00,11.6,5.8,29.93,NW,321,0.0,0.0,77,0.00,CLR,CLR,0.00,WeatherDisplay:10.34,2013-02-12 06:35:00,
2013-02-11 23:40:00,11.5,5.7,29.93,NW,321,0.0,0.0,77,0.00,CLR,CLR,0.00,WeatherDisplay:10.34,2013-02-12 06:40:00,
2013-02-11 23:45:00,11.3,5.2,29.93,NW,321,0.0,0.0,76,0.00,CLR,CLR,0.00,WeatherDisplay:10.34,2013-02-12 06:45:00,
2013-02-11 23:50:00,11.1,5.0,29.93,NW,321,0.0,0.0,76,0.00,CLR,CLR,0.00,WeatherDisplay:10.34,2013-02-12 06:50:00,
2013-02-11 23:55:00,10.9,4.8,29.93,NW,321,0.0,0.0,76,0.00,CLR,CLR,0.00,WeatherDisplay:10.34,2013-02-12 06:55:00,